^^
Station Historical Data
Daily Summary for October 18, 2017 Units:  English    Metric   Both
« Previous Day
Next Day »
Daily Weekly Monthly Yearly Custom
  High: Low: Average:
Temperature: 72.0 °F 46.0 °F 57.8 °F
Dew Point: 51.7 °F 34.9 °F 42.1 °F
Humidity: 74% 37% 57%
Wind Speed: 2.0mph 0.0mph 0.1mph
Wind Gust: 8.0mph - -
Wind- - SSW
Pressure: 30.31 in 30.24 in -
Precipitation: 0.00 in    
Historical Graphs
 
 
Tabular Data for October 18, 2017
Time Temperature Dew Point Pressure Wind Wind Speed Wind Gust Humidity Rainfall Rate (Hourly) Conditions
05:26 51.1 °F 38.9 °F 30.27 in Calm     63% 0.00 in CLR
05:27 51.1 °F 38.9 °F 30.27 in Calm     63% 0.00 in CLR
05:29 51.1 °F 38.9 °F 30.27 in Calm     63% 0.00 in CLR
05:34 46.9 °F 35.0 °F 30.26 in Calm     63% 0.00 in CLR
05:39 46.9 °F 35.0 °F 30.26 in Calm     63% 0.00 in CLR
05:44 46.9 °F 35.0 °F 30.26 in Calm     63% 0.00 in CLR
05:49 46.9 °F 35.0 °F 30.26 in Calm     63% 0.00 in CLR
05:54 46.9 °F 35.0 °F 30.26 in Calm     63% 0.00 in CLR
05:59 46.9 °F 35.0 °F 30.26 in Calm     63% 0.00 in CLR
06:04 46.0 °F 34.9 °F 30.27 in Calm     65% 0.00 in CLR
06:09 46.0 °F 34.9 °F 30.27 in Calm     65% 0.00 in CLR
06:14 46.0 °F 34.9 °F 30.27 in Calm     65% 0.00 in CLR
06:19 46.0 °F 34.9 °F 30.27 in Calm     65% 0.00 in CLR
06:24 46.0 °F 34.9 °F 30.27 in Calm     65% 0.00 in CLR
06:29 46.0 °F 34.9 °F 30.27 in Calm     65% 0.00 in CLR
06:34 46.0 °F 34.9 °F 30.27 in Calm     65% 0.00 in CLR
06:39 46.0 °F 34.9 °F 30.27 in Calm     65% 0.00 in CLR
06:44 46.0 °F 34.9 °F 30.27 in Calm     65% 0.00 in CLR
06:49 46.0 °F 34.9 °F 30.27 in Calm     65% 0.00 in CLR
06:54 46.0 °F 34.9 °F 30.27 in Calm     65% 0.00 in CLR
06:59 46.0 °F 34.9 °F 30.27 in Calm     65% 0.00 in CLR
07:04 46.9 °F 35.0 °F 30.28 in Calm     63% 0.00 in CLR
07:09 46.9 °F 35.0 °F 30.28 in Calm     63% 0.00 in CLR
07:14 46.9 °F 35.0 °F 30.28 in Calm     63% 0.00 in CLR
07:19 46.9 °F 35.0 °F 30.28 in Calm     63% 0.00 in CLR
07:24 46.9 °F 35.0 °F 30.28 in Calm     63% 0.00 in CLR
07:29 46.9 °F 35.0 °F 30.28 in Calm     63% 0.00 in CLR
07:34 46.9 °F 35.0 °F 30.28 in Calm     63% 0.00 in CLR
07:39 46.9 °F 35.0 °F 30.28 in Calm     63% 0.00 in CLR
07:44 46.9 °F 35.0 °F 30.28 in Calm     63% 0.00 in CLR
07:49 46.9 °F 35.0 °F 30.28 in Calm     63% 0.00 in CLR
07:54 46.9 °F 35.0 °F 30.28 in Calm     63% 0.00 in CLR
07:59 46.9 °F 35.0 °F 30.28 in Calm     63% 0.00 in CLR
08:04 48.0 °F 36.8 °F 30.29 in Calm     65% 0.00 in CLR
08:09 48.0 °F 36.8 °F 30.29 in Calm     65% 0.00 in CLR
08:14 48.0 °F 36.8 °F 30.29 in Calm     65% 0.00 in CLR
08:19 48.0 °F 36.8 °F 30.29 in Calm     65% 0.00 in CLR
08:24 48.0 °F 36.8 °F 30.29 in Calm     65% 0.00 in CLR
08:29 48.0 °F 36.8 °F 30.29 in Calm     65% 0.00 in CLR
08:34 48.0 °F 36.8 °F 30.29 in Calm     65% 0.00 in CLR
08:39 48.0 °F 36.8 °F 30.29 in Calm     65% 0.00 in CLR
08:44 48.0 °F 36.8 °F 30.29 in Calm     65% 0.00 in CLR
08:49 48.0 °F 36.8 °F 30.29 in Calm     65% 0.00 in CLR
08:54 48.0 °F 36.8 °F 30.29 in Calm     65% 0.00 in CLR
08:59 48.0 °F 36.8 °F 30.29 in Calm     65% 0.00 in CLR
09:04 52.0 °F 38.9 °F 30.31 in Calm     61% 0.00 in CLR
09:09 52.0 °F 38.9 °F 30.31 in Calm     61% 0.00 in CLR
09:14 52.0 °F 38.9 °F 30.31 in Calm     61% 0.00 in CLR
09:19 52.0 °F 38.9 °F 30.31 in Calm     61% 0.00 in CLR
09:24 52.0 °F 38.9 °F 30.31 in Calm     61% 0.00 in CLR
09:29 52.0 °F 38.9 °F 30.31 in Calm     61% 0.00 in CLR
09:34 52.0 °F 38.9 °F 30.31 in Calm     61% 0.00 in CLR
09:39 52.0 °F 38.9 °F 30.31 in Calm     61% 0.00 in CLR
09:44 52.0 °F 38.9 °F 30.31 in Calm     61% 0.00 in CLR
09:52 52.0 °F 38.9 °F 30.31 in Calm     61% 0.00 in CLR
10:10 57.0 °F 39.6 °F 30.31 in Calm     52% 0.00 in CLR
10:20 57.0 °F 39.6 °F 30.31 in Calm     52% 0.00 in CLR
10:30 57.0 °F 39.6 °F 30.31 in Calm     52% 0.00 in CLR
10:40 57.0 °F 39.6 °F 30.31 in Calm     52% 0.00 in CLR
10:50 57.0 °F 39.6 °F 30.31 in Calm     52% 0.00 in CLR
11:00 57.0 °F 39.6 °F 30.31 in Calm     52% 0.00 in CLR
11:10 62.1 °F 41.6 °F 30.30 in Calm     47% 0.00 in CLR
11:20 62.1 °F 41.6 °F 30.30 in Calm     47% 0.00 in CLR
11:30 62.1 °F 41.6 °F 30.30 in Calm     47% 0.00 in CLR
11:40 62.1 °F 41.6 °F 30.30 in Calm     47% 0.00 in CLR
11:50 62.1 °F 41.6 °F 30.30 in Calm     47% 0.00 in CLR
12:00 62.1 °F 41.6 °F 30.30 in Calm     47% 0.00 in CLR
12:10 64.9 °F 41.9 °F 30.31 in Calm     43% 0.00 in CLR
12:20 64.9 °F 41.9 °F 30.31 in Calm     43% 0.00 in CLR
12:30 64.9 °F 41.9 °F 30.31 in Calm     43% 0.00 in CLR
12:40 64.9 °F 41.9 °F 30.31 in Calm     43% 0.00 in CLR
12:50 64.9 °F 41.9 °F 30.31 in Calm     43% 0.00 in CLR
13:00 64.9 °F 41.9 °F 30.31 in Calm     43% 0.00 in CLR
13:10 68.0 °F 42.8 °F 30.30 in Calm     40% 0.00 in CLR
13:20 68.0 °F 42.8 °F 30.30 in Calm     40% 0.00 in CLR
13:30 68.0 °F 42.8 °F 30.30 in Calm     40% 0.00 in CLR
13:40 68.0 °F 42.8 °F 30.30 in Calm     40% 0.00 in CLR
13:50 68.0 °F 42.8 °F 30.30 in Calm     40% 0.00 in CLR
14:00 68.0 °F 42.8 °F 30.30 in Calm     40% 0.00 in CLR
14:10 70.0 °F 44.5 °F 30.27 in Calm     40% 0.00 in CLR
14:20 70.0 °F 44.5 °F 30.27 in Calm     40% 0.00 in CLR
14:30 70.0 °F 44.5 °F 30.27 in Calm     40% 0.00 in CLR
14:40 70.0 °F 44.5 °F 30.27 in Calm     40% 0.00 in CLR
14:50 70.0 °F 44.5 °F 30.27 in Calm     40% 0.00 in CLR
15:00 70.0 °F 44.5 °F 30.27 in Calm     40% 0.00 in CLR
15:10 72.0 °F 44.3 °F 30.26 in Calm     37% 0.00 in CLR
15:20 72.0 °F 44.3 °F 30.26 in Calm     37% 0.00 in CLR
15:30 72.0 °F 44.3 °F 30.26 in Calm     37% 0.00 in CLR
15:40 72.0 °F 44.3 °F 30.26 in Calm     37% 0.00 in CLR
15:50 72.0 °F 44.3 °F 30.26 in Calm     37% 0.00 in CLR
16:00 72.0 °F 44.3 °F 30.26 in Calm     37% 0.00 in CLR
16:20 72.0 °F 44.3 °F 30.25 in Calm     37% 0.00 in CLR
16:30 72.0 °F 44.3 °F 30.25 in Calm     37% 0.00 in CLR
16:40 72.0 °F 44.3 °F 30.25 in Calm     37% 0.00 in CLR
16:50 72.0 °F 44.3 °F 30.25 in Calm     37% 0.00 in CLR
17:00 72.0 °F 44.3 °F 30.25 in Calm     37% 0.00 in CLR
17:10 70.0 °F 45.8 °F 30.24 in Calm     42% 0.00 in CLR
17:20 70.0 °F 45.8 °F 30.24 in Calm     42% 0.00 in CLR
17:30 70.0 °F 45.8 °F 30.24 in Calm     42% 0.00 in CLR
17:40 70.0 °F 45.8 °F 30.24 in Calm     42% 0.00 in CLR
17:50 70.0 °F 45.8 °F 30.24 in Calm     42% 0.00 in CLR
18:00 70.0 °F 45.8 °F 30.24 in Calm     42% 0.00 in CLR
18:10 64.0 °F 47.5 °F 30.25 in Calm     55% 0.00 in CLR
18:20 64.0 °F 47.5 °F 30.25 in Calm     55% 0.00 in CLR
18:30 64.0 °F 47.5 °F 30.25 in Calm     55% 0.00 in CLR
18:40 64.0 °F 47.5 °F 30.25 in Calm     55% 0.00 in CLR
18:50 65.7 °F 50.0 °F 30.27 in Calm   4.0 mph 57% 0.00 in CLR
18:56 65.2 °F 50.0 °F 30.27 in SSW 2.0 mph 8.0 mph 58% 0.00 in CLR
19:10 64.3 °F 50.1 °F 30.28 in Calm   3.0 mph 60% 0.00 in CLR
19:20 63.6 °F 50.3 °F 30.28 in South 1.0 mph 3.0 mph 62% 0.00 in CLR
19:30 63.2 °F 50.4 °F 30.28 in SW 1.0 mph 5.0 mph 63% 0.00 in CLR
19:40 63.0 °F 50.6 °F 30.28 in South 1.0 mph 5.0 mph 64% 0.00 in CLR
19:50 62.6 °F 51.1 °F 30.28 in SSW 2.0 mph 4.0 mph 66% 0.00 in CLR
20:00 62.2 °F 51.1 °F 30.29 in Calm   5.0 mph 67% 0.00 in CLR
20:10 61.8 °F 51.1 °F 30.29 in Calm   3.0 mph 68% 0.00 in CLR
20:20 61.5 °F 51.2 °F 30.29 in Calm   3.0 mph 69% 0.00 in CLR
20:30 61.3 °F 51.4 °F 30.29 in Calm   2.0 mph 70% 0.00 in CLR
20:40 61.2 °F 51.3 °F 30.29 in Calm   4.0 mph 70% 0.00 in CLR
20:50 61.2 °F 51.7 °F 30.30 in Calm   4.0 mph 71% 0.00 in CLR
21:00 60.9 °F 51.5 °F 30.30 in Calm   3.0 mph 71% 0.00 in CLR
21:10 60.7 °F 51.6 °F 30.30 in Calm   3.0 mph 72% 0.00 in CLR
21:20 60.6 °F 51.5 °F 30.30 in Calm   3.0 mph 72% 0.00 in CLR
21:30 60.2 °F 51.5 °F 30.30 in Calm   3.0 mph 73% 0.00 in CLR
21:40 59.8 °F 51.5 °F 30.30 in Calm   3.0 mph 74% 0.00 in CLR
21:50 59.7 °F 50.7 °F 30.30 in Calm   2.0 mph 72% 0.00 in CLR
22:00 59.7 °F 50.7 °F 30.30 in Calm   3.0 mph 72% 0.00 in CLR
22:10 59.3 °F 50.3 °F 30.30 in Calm   2.0 mph 72% 0.00 in CLR
22:20 58.9 °F 49.9 °F 30.30 in Calm   2.0 mph 72% 0.00 in CLR
22:30 58.4 °F 49.8 °F 30.30 in Calm   2.0 mph 73% 0.00 in CLR
22:40 58.0 °F 49.4 °F 30.30 in Calm   1.0 mph 73% 0.00 in CLR
22:50 58.3 °F 49.3 °F 30.30 in Calm   2.0 mph 72% 0.00 in CLR
23:00 58.3 °F 49.3 °F 30.29 in Calm   2.0 mph 72% 0.00 in CLR
23:10 58.0 °F 49.0 °F 30.29 in Calm   2.0 mph 72% 0.00 in CLR
23:30 57.4 °F 48.8 °F 30.29 in Calm   4.0 mph 73% 0.00 in CLR
23:40 56.8 °F 48.3 °F 30.29 in Calm     73% 0.00 in CLR
23:50 56.5 °F 48.3 °F 30.29 in Calm     74% 0.00 in CLR
TarryTown NY Weather
Compliments of Weather Underground - 1.75 mb